Airfield :
LOGIN :

Register | Disclaimer

   EN    FR    IT 

 










Legend :    VFR   Marginal VFR   IFR   Intensive IFR   Very Intensive IFR
Visi :
Ceiling :
>= 8 km
>= 3000ft
5 to 8 km
1000 to 3000 ft
1500m to 5 km
500 to 1000 ft
800 to 1500m
200 to 500 ft
< 800m
< 200 ft
Symbols :   Thunderstorms  Fog  Heavy snow  Heavy precipitations  Wind > 20 kt
SIGMETs :     Misc.  Thunderstorms  Icing  Turbulence  Mountain Waves  Volcanic Ashes






- Airport Elevation : 1300 ft
- IATA code : LIG


LFBL - Limoges

CURRENT METAR :
  • 271730Z AUTO 32010KT 290V350 9999 FEW029/// ///TCU 08/04 Q1013 BECMG NSC

EXPIRED METARs :
  • 271700Z AUTO 33011KT 300V360 9999 FEW026/// SCT033/// ///TCU 09/05 Q1012 TEMPO 27018G28KT BECMG NSC
  • 271630Z AUTO 31011KT 280V340 9999 BKN024/// OVC032/// ///TCU 09/06 Q1011 TEMPO 27018G28KT BECMG NSC
  • 271600Z AUTO 29013KT 270V330 9999 4100 RA BKN025/// OVC030/// ///CB 09/06 Q1010 TEMPO 4000 -SHRA BECMG 27018G28KT BKN017
  • 271530Z AUTO 28014KT 240V320 9999 FEW025 SCT031 BKN043 12/08 Q1009 TEMPO 4000 -SHRA BKN012TCU BECMG 27018G28KT
  • 271500Z AUTO 29015KT 9999 FEW017 BKN023 BKN034 11/08 Q1008 TEMPO 4000 -SHRA BKN012TCU BECMG 27018G28KT

TAF TAF LFBL
Valid from the 27 at 18:00 until the 28 at 18:00 UTC


271700Z 2718/2818 31010KT 9999 SCT025 BKN040
BECMG 2718/2720 CAVOK
BECMG 2721/2723 VRB02KT
BECMG 2801/2803 10005KT
BECMG 2807/2809 BKN012
TEMPO 2809/2812 4000 -RA OVC006
TEMPO 2812/2818 2000 DZRA OVC002
ATIS : +33 5 55 48 40 37



MET'MAP, your aeronautical weather chart ! - Copyright ORBIFLY December 2007 - Disclaimer

ORBIFLY MET'MAP TEAM :

Programming & Development : Alexandra Zaïnal
Concept & original design : Baudouin d'Aumeries
Assistance for programming : Marc-Olivier Méhu
Technical & hardware support : Manuel Goepfert

Contact : metmap@orbifly.com




SOURCES & CREDITS :

   NOAA